createdAt,value
2022-12-15T00:00:38.159Z,71.19
2022-12-15T00:05:58.388Z,71.53
2022-12-15T00:11:20.425Z,71.12
2022-12-15T00:16:42.309Z,70.88
2022-12-15T00:22:02.417Z,71.55
2022-12-15T00:27:23.197Z,70.22
2022-12-15T00:32:44.648Z,69.87
2022-12-15T00:38:05.173Z,69.91
2022-12-15T00:43:11.898Z,69.92
2022-12-15T00:48:16.648Z,70.05
2022-12-15T00:53:37.015Z,70.24
2022-12-15T00:58:57.195Z,69.74
2022-12-15T01:04:18.893Z,69.64
2022-12-15T01:09:39.133Z,69.95
2022-12-15T01:14:59.527Z,69.58
2022-12-15T01:20:20.582Z,70.13
2022-12-15T01:25:26.133Z,69.18
2022-12-15T01:30:29.006Z,69.45
2022-12-15T01:35:33.671Z,69.17
2022-12-15T01:40:50.128Z,68.84
2022-12-15T01:46:02.761Z,69.09
2022-12-15T01:51:12.028Z,69.26
2022-12-15T01:56:15.115Z,69.27
2022-12-15T02:01:18.778Z,69.59
2022-12-15T02:06:24.379Z,69.08
2022-12-15T02:12:02.800Z,68.82
2022-12-15T02:17:18.703Z,70.19
2022-12-15T02:22:33.805Z,69.76
2022-12-15T02:27:51.839Z,69.18
2022-12-15T02:33:04.868Z,68.61
2022-12-15T02:38:09.525Z,68.25
2022-12-15T02:43:12.510Z,67.97
2022-12-15T02:48:27.420Z,67.58
2022-12-15T02:53:45.932Z,67.48
2022-12-15T02:58:59.643Z,67.80
2022-12-15T03:04:07.575Z,67.62
2022-12-15T03:09:10.389Z,67.23
2022-12-15T03:14:13.932Z,67.19
2022-12-15T03:19:18.143Z,67.73
2022-12-15T03:24:21.070Z,67.78
2022-12-15T03:29:23.936Z,67.88
2022-12-15T03:34:28.128Z,68.75
2022-12-15T03:39:30.954Z,69.42
2022-12-15T03:44:33.850Z,69.71
2022-12-15T03:49:38.088Z,69.98
2022-12-15T03:54:40.923Z,69.23
2022-12-15T03:59:43.788Z,68.43
2022-12-15T04:04:48.605Z,68.25
2022-12-15T04:09:51.511Z,68.71
2022-12-15T04:14:54.355Z,68.22
2022-12-15T04:20:10.292Z,69.58
2022-12-15T04:25:33.657Z,69.72
2022-12-15T04:30:54.592Z,69.80
2022-12-15T04:36:16.647Z,69.21
2022-12-15T04:41:39.700Z,69.23
2022-12-15T04:47:00.207Z,68.91
2022-12-15T04:52:21.808Z,69.07
2022-12-15T04:57:42.029Z,69.47
2022-12-15T05:03:02.465Z,69.99
2022-12-15T05:08:24.113Z,69.87
2022-12-15T05:13:44.464Z,70.13
2022-12-15T05:19:04.581Z,69.52
2022-12-15T05:24:26.532Z,69.14
2022-12-15T05:29:46.983Z,69.41
2022-12-15T05:34:49.781Z,69.07
2022-12-15T05:39:53.944Z,68.66
2022-12-15T05:44:56.721Z,68.56
2022-12-15T05:49:59.579Z,68.17
2022-12-15T05:55:03.751Z,68.06
2022-12-15T06:00:07.695Z,69.30
2022-12-15T06:05:14.675Z,68.93
2022-12-15T06:10:18.895Z,69.07
2022-12-15T06:15:21.742Z,68.98
2022-12-15T06:20:24.562Z,69.32
2022-12-15T06:25:28.725Z,68.72
2022-12-15T06:30:31.666Z,68.74
2022-12-15T06:35:37.081Z,67.95
2022-12-15T06:40:41.609Z,68.21
2022-12-15T06:45:49.918Z,68.47
2022-12-15T06:50:53.446Z,68.39
2022-12-15T06:56:01.438Z,66.87
2022-12-15T07:01:08.041Z,67.00
2022-12-15T07:06:13.093Z,68.13
2022-12-15T07:11:17.343Z,69.71
2022-12-15T07:16:22.243Z,69.96
2022-12-15T07:21:25.181Z,69.05
2022-12-15T07:26:29.439Z,67.38
2022-12-15T07:31:32.743Z,65.81
2022-12-15T07:36:36.116Z,64.20
2022-12-15T07:41:41.325Z,62.19
2022-12-15T07:46:46.842Z,63.45
2022-12-15T07:51:50.609Z,64.01
2022-12-15T07:56:54.908Z,64.55
2022-12-15T08:01:59.226Z,65.38
2022-12-15T08:07:02.346Z,65.92
2022-12-15T08:12:07.137Z,66.28
2022-12-15T08:17:09.957Z,65.21
2022-12-15T08:22:15.044Z,64.05
2022-12-15T08:27:20.762Z,63.05
2022-12-15T08:32:24.663Z,62.79
2022-12-15T08:37:28.033Z,61.76
2022-12-15T08:42:35.898Z,60.67
2022-12-15T08:47:38.981Z,59.56
2022-12-15T08:52:55.271Z,59.07
2022-12-15T08:58:05.387Z,58.17
2022-12-15T09:03:08.615Z,57.47
2022-12-15T09:08:11.529Z,56.97
2022-12-15T09:13:15.881Z,55.63
2022-12-15T09:18:18.944Z,55.39
2022-12-15T09:23:22.367Z,57.07
2022-12-15T09:28:27.276Z,58.10
2022-12-15T09:33:30.661Z,56.47
2022-12-15T09:38:34.945Z,54.83
2022-12-15T09:43:47.154Z,54.43
2022-12-15T09:48:52.305Z,53.27
2022-12-15T09:53:56.453Z,52.32
2022-12-15T09:59:06.782Z,53.11
2022-12-15T10:04:20.097Z,53.14
2022-12-15T10:09:27.870Z,53.59
2022-12-15T10:14:40.519Z,54.34
2022-12-15T10:19:50.855Z,54.20
2022-12-15T10:25:11.032Z,51.97
2022-12-15T10:30:16.738Z,53.02
2022-12-15T10:35:22.977Z,53.50
2022-12-15T10:40:45.198Z,54.29
2022-12-15T10:46:13.517Z,53.81
2022-12-15T10:51:23.370Z,53.03
2022-12-15T10:56:33.329Z,52.38
2022-12-15T11:01:38.276Z,50.86
2022-12-15T11:06:43.259Z,48.96
2022-12-15T11:12:05.924Z,48.40
2022-12-15T11:17:10.363Z,48.41
2022-12-15T11:22:20.494Z,46.96
2022-12-15T11:27:31.953Z,46.05
2022-12-15T11:32:39.649Z,45.79
2022-12-15T11:37:50.471Z,46.73
2022-12-15T11:43:21.168Z,45.44
2022-12-15T11:48:32.910Z,44.79
2022-12-15T11:53:52.081Z,44.35
2022-12-15T11:59:12.091Z,43.81
2022-12-15T12:04:23.706Z,43.03
2022-12-15T12:09:31.874Z,43.71
2022-12-15T12:14:45.084Z,44.50
2022-12-15T12:19:58.948Z,44.36
2022-12-15T12:25:04.408Z,44.54
2022-12-15T12:30:14.313Z,46.01
2022-12-15T12:35:31.138Z,45.39
2022-12-15T12:40:53.715Z,44.83
2022-12-15T12:46:00.839Z,43.91
2022-12-15T12:51:23.699Z,43.32
2022-12-15T12:56:34.472Z,43.90
2022-12-15T13:01:38.934Z,43.73
2022-12-15T13:07:06.833Z,43.63
2022-12-15T13:12:51.036Z,44.34
2022-12-15T13:17:59.076Z,45.72
2022-12-15T13:23:41.233Z,46.40
2022-12-15T13:28:51.628Z,45.88
2022-12-15T13:34:00.539Z,45.32
2022-12-15T13:39:06.745Z,46.09
2022-12-15T13:44:16.705Z,46.78
2022-12-15T13:49:28.022Z,47.19
2022-12-15T13:54:37.452Z,46.91
2022-12-15T13:59:45.511Z,48.02
2022-12-15T14:05:14.755Z,48.70
2022-12-15T14:10:22.828Z,49.22
2022-12-15T14:15:29.125Z,49.64
2022-12-15T14:20:39.977Z,49.58
2022-12-15T14:25:54.103Z,49.21
2022-12-15T14:31:00.440Z,49.19
2022-12-15T14:36:07.650Z,49.57
2022-12-15T14:41:25.532Z,50.15
2022-12-15T14:46:30.424Z,50.17
2022-12-15T14:51:42.453Z,51.51
2022-12-15T14:56:46.750Z,52.79
2022-12-15T15:01:58.738Z,54.09
2022-12-15T15:07:03.354Z,54.62
2022-12-15T15:12:13.629Z,55.49
2022-12-15T15:17:28.451Z,55.87
2022-12-15T15:22:40.895Z,56.64
2022-12-15T15:27:44.918Z,57.09
2022-12-15T15:32:56.430Z,57.63
2022-12-15T15:38:04.893Z,58.20
2022-12-15T15:43:12.914Z,58.21
2022-12-15T15:48:24.764Z,58.22
2022-12-15T15:53:30.634Z,58.30
2022-12-15T15:58:35.364Z,58.61
2022-12-15T16:03:39.713Z,58.42
2022-12-15T16:08:43.326Z,59.02
2022-12-15T16:13:47.514Z,60.51
2022-12-15T16:18:50.361Z,60.99
2022-12-15T16:23:54.986Z,60.95
2022-12-15T16:28:59.559Z,62.42
2022-12-15T16:34:02.548Z,63.58
2022-12-15T16:39:06.184Z,63.84
2022-12-15T16:44:13.268Z,64.13
2022-12-15T16:49:16.100Z,64.82
2022-12-15T16:54:21.860Z,65.16
2022-12-15T16:59:35.852Z,65.68
2022-12-15T17:04:39.115Z,65.80
2022-12-15T17:09:41.982Z,65.79
2022-12-15T17:14:46.265Z,66.01
2022-12-15T17:25:27.391Z,66.36
2022-12-15T17:30:41.999Z,66.39
2022-12-15T17:35:44.969Z,66.85
2022-12-15T17:40:49.031Z,66.89
2022-12-15T17:45:55.644Z,66.78
2022-12-15T17:50:58.432Z,67.13
2022-12-15T17:56:01.394Z,67.39
2022-12-15T18:01:06.364Z,67.43
2022-12-15T18:06:14.353Z,67.47
2022-12-15T18:11:17.918Z,66.99
2022-12-15T18:16:22.210Z,67.21
2022-12-15T18:21:26.405Z,67.60
2022-12-15T18:26:31.404Z,68.18
2022-12-15T18:31:36.071Z,68.28
2022-12-15T18:36:39.824Z,68.26
2022-12-15T18:41:42.659Z,68.09
2022-12-15T18:46:48.244Z,68.15
2022-12-15T18:51:51.443Z,68.25
2022-12-15T18:56:54.879Z,68.33
2022-12-15T19:01:59.287Z,68.55
2022-12-15T19:07:06.593Z,68.79
2022-12-15T19:12:21.270Z,68.27
2022-12-15T19:17:43.318Z,68.17
2022-12-15T19:22:48.021Z,68.04
2022-12-15T19:27:51.000Z,69.09
2022-12-15T19:32:55.308Z,69.07
2022-12-15T19:37:59.881Z,68.99
2022-12-15T19:43:04.917Z,68.85
2022-12-15T19:48:11.419Z,69.46
2022-12-15T19:53:22.647Z,69.26
2022-12-15T19:58:28.986Z,69.02
2022-12-15T20:03:34.149Z,68.97
2022-12-15T20:08:40.936Z,69.45
2022-12-15T20:13:43.775Z,69.65
2022-12-15T20:18:49.036Z,69.64
2022-12-15T20:23:55.716Z,69.75
2022-12-15T20:28:58.944Z,70.42
2022-12-15T20:34:03.216Z,70.20
2022-12-15T20:39:13.518Z,70.41
2022-12-15T20:44:16.436Z,70.40
2022-12-15T20:49:23.218Z,70.31
2022-12-15T20:54:26.301Z,70.06
2022-12-15T20:59:29.129Z,70.15
2022-12-15T21:04:33.499Z,69.90
2022-12-15T21:09:36.330Z,69.61
2022-12-15T21:14:39.142Z,69.90
2022-12-15T21:19:43.470Z,70.01
2022-12-15T21:24:46.832Z,69.90
2022-12-15T21:29:52.638Z,70.47
2022-12-15T21:34:57.556Z,70.75
2022-12-15T21:40:00.522Z,70.87
2022-12-15T21:45:03.411Z,70.69
2022-12-15T21:50:08.743Z,70.62
2022-12-15T21:55:16.104Z,70.59
2022-12-15T22:00:20.221Z,70.26
2022-12-15T22:05:29.248Z,69.74
2022-12-15T22:10:32.304Z,69.59
2022-12-15T22:15:35.348Z,69.47
2022-12-15T22:20:39.712Z,69.27
2022-12-15T22:25:42.831Z,69.62
2022-12-15T22:30:46.064Z,69.25
2022-12-15T22:35:52.556Z,68.92
2022-12-15T22:40:59.776Z,69.55
2022-12-15T22:46:04.328Z,70.01
2022-12-15T22:51:12.286Z,69.95
2022-12-15T22:56:25.665Z,69.79
2022-12-15T23:01:29.128Z,70.00
2022-12-15T23:06:33.662Z,69.45
2022-12-15T23:11:39.388Z,69.67
2022-12-15T23:16:43.945Z,69.41
2022-12-15T23:21:50.283Z,68.65
2022-12-15T23:26:53.361Z,68.63
2022-12-15T23:31:56.728Z,68.78
2022-12-15T23:37:01.114Z,69.02
2022-12-15T23:42:05.562Z,69.29
2022-12-15T23:47:09.088Z,69.28
2022-12-15T23:52:13.769Z,69.21
2022-12-15T23:57:17.368Z,69.76
